createdAt,value
2022-12-01T00:00:27.318Z,1.75
2022-12-01T00:02:55.229Z,1.80
2022-12-01T00:05:23.054Z,1.78
2022-12-01T00:07:50.830Z,1.75
2022-12-01T00:10:26.606Z,1.72
2022-12-01T00:12:56.619Z,1.72
2022-12-01T00:15:27.329Z,1.72
2022-12-01T00:17:55.044Z,1.70
2022-12-01T00:20:22.777Z,1.69
2022-12-01T00:22:51.056Z,1.67
2022-12-01T00:25:20.527Z,1.65
2022-12-01T00:27:49.821Z,1.66
2022-12-01T00:30:21.220Z,1.65
2022-12-01T00:32:49.777Z,1.63
2022-12-01T00:35:18.219Z,1.59
2022-12-01T00:37:45.971Z,1.59
2022-12-01T00:40:14.814Z,1.58
2022-12-01T00:42:42.536Z,1.56
2022-12-01T00:45:12.071Z,1.55
2022-12-01T00:47:41.178Z,1.52
2022-12-01T00:50:09.492Z,1.53
2022-12-01T00:52:37.219Z,1.53
2022-12-01T00:55:05.561Z,1.52
2022-12-01T00:57:33.278Z,1.54
2022-12-01T01:00:00.945Z,1.57
2022-12-01T01:02:28.759Z,1.54
2022-12-01T01:05:00.926Z,1.61
2022-12-01T01:07:31.072Z,1.48
2022-12-01T01:09:58.796Z,1.47
2022-12-01T01:12:26.531Z,1.49
2022-12-01T01:14:54.245Z,1.47
2022-12-01T01:17:21.979Z,1.48
2022-12-01T01:19:49.890Z,1.50
2022-12-01T01:22:21.160Z,1.47
2022-12-01T01:24:48.839Z,1.43
2022-12-01T01:27:16.551Z,1.42
2022-12-01T01:29:44.234Z,1.38
2022-12-01T01:32:11.985Z,1.35
2022-12-01T01:34:39.730Z,1.36
2022-12-01T01:37:07.446Z,1.32
2022-12-01T01:39:38.982Z,1.37
2022-12-01T01:42:06.689Z,1.34
2022-12-01T01:44:52.337Z,1.36
2022-12-01T01:47:25.223Z,1.36
2022-12-01T01:49:53.905Z,1.27
2022-12-01T01:52:22.500Z,1.31
2022-12-01T01:54:55.091Z,1.32
2022-12-01T01:57:27.558Z,1.27
2022-12-01T02:00:00.132Z,1.25
2022-12-01T02:02:28.027Z,1.27
2022-12-01T02:05:00.218Z,1.29
2022-12-01T02:07:30.075Z,1.36
2022-12-01T02:09:59.613Z,1.42
2022-12-01T02:12:47.353Z,1.42
2022-12-01T02:15:27.343Z,1.34
2022-12-01T02:18:08.092Z,1.36
2022-12-01T02:20:55.565Z,1.31
2022-12-01T02:23:47.833Z,1.31
2022-12-01T02:26:51.870Z,1.41
2022-12-01T02:29:50.628Z,1.38
2022-12-01T02:32:30.825Z,1.35
2022-12-01T02:35:03.162Z,1.40
2022-12-01T02:37:35.387Z,1.34
2022-12-01T02:40:11.009Z,1.33
2022-12-01T02:42:50.716Z,1.37
2022-12-01T02:45:27.657Z,1.41
2022-12-01T02:48:01.260Z,1.42
2022-12-01T02:50:31.543Z,1.40
2022-12-01T02:53:01.128Z,1.44
2022-12-01T02:55:28.826Z,1.47
2022-12-01T02:57:56.529Z,1.43
2022-12-01T03:00:24.337Z,1.45
2022-12-01T03:03:18.371Z,1.49
2022-12-01T03:05:54.241Z,1.43
2022-12-01T03:08:28.391Z,1.47
2022-12-01T03:10:58.437Z,1.40
2022-12-01T03:13:39.039Z,1.43
2022-12-01T03:16:12.971Z,1.35
2022-12-01T03:18:48.239Z,1.33
2022-12-01T03:21:25.282Z,1.39
2022-12-01T03:23:57.487Z,1.35
2022-12-01T03:26:28.980Z,1.38
2022-12-01T03:29:01.134Z,1.43
2022-12-01T03:31:33.117Z,1.42
2022-12-01T03:34:07.277Z,1.43
2022-12-01T03:36:38.741Z,1.43
2022-12-01T03:39:11.352Z,1.49
2022-12-01T03:41:44.252Z,1.48
2022-12-01T03:44:18.196Z,1.45
2022-12-01T03:46:51.226Z,1.48
2022-12-01T03:49:23.564Z,1.48
2022-12-01T03:52:03.229Z,1.51
2022-12-01T03:54:46.656Z,1.48
2022-12-01T03:57:19.897Z,1.45
2022-12-01T03:59:49.260Z,1.52
2022-12-01T04:02:18.110Z,1.49
2022-12-01T04:04:47.151Z,1.55
2022-12-01T04:07:14.860Z,1.58
2022-12-01T04:09:45.050Z,1.53
2022-12-01T04:12:33.008Z,1.55
2022-12-01T04:15:03.108Z,1.52
2022-12-01T04:17:31.479Z,1.54
2022-12-01T04:20:01.504Z,1.51
2022-12-01T04:22:29.256Z,1.54
2022-12-01T04:24:57.008Z,1.56
2022-12-01T04:27:24.961Z,1.60
2022-12-01T04:29:52.723Z,1.54
2022-12-01T04:32:20.505Z,1.55
2022-12-01T04:34:48.219Z,1.56
2022-12-01T04:37:17.535Z,1.55
2022-12-01T04:39:45.756Z,1.55
2022-12-01T04:42:13.635Z,1.55
2022-12-01T04:44:41.277Z,1.66
2022-12-01T04:47:09.084Z,1.66
2022-12-01T04:49:37.312Z,1.70
2022-12-01T04:52:05.434Z,1.67
2022-12-01T04:54:34.554Z,1.65
2022-12-01T04:57:02.260Z,1.62
2022-12-01T04:59:29.971Z,1.61
2022-12-01T05:01:57.789Z,1.65
2022-12-01T05:04:25.604Z,1.64
2022-12-01T05:06:55.414Z,1.67
2022-12-01T05:09:23.106Z,1.74
2022-12-01T05:11:52.149Z,1.68
2022-12-01T05:14:19.821Z,1.79
2022-12-01T05:16:47.553Z,1.72
2022-12-01T05:19:32.804Z,1.70
2022-12-01T05:22:00.509Z,1.69
2022-12-01T05:24:28.404Z,1.61
2022-12-01T05:26:57.443Z,1.61
2022-12-01T05:29:25.167Z,1.60
2022-12-01T05:31:52.934Z,1.62
2022-12-01T05:34:20.614Z,1.63
2022-12-01T05:36:48.268Z,1.62
2022-12-01T05:39:16.182Z,1.59
2022-12-01T05:41:43.884Z,1.60
2022-12-01T05:44:12.926Z,1.64
2022-12-01T05:46:40.608Z,1.60
2022-12-01T05:49:08.384Z,1.61
2022-12-01T05:51:37.752Z,1.63
2022-12-01T05:54:05.682Z,1.65
2022-12-01T05:56:33.413Z,1.64
2022-12-01T05:59:01.164Z,1.67
2022-12-01T06:01:30.234Z,1.64
2022-12-01T06:03:58.051Z,1.66
2022-12-01T06:06:25.767Z,1.65
2022-12-01T06:08:53.464Z,1.68
2022-12-01T06:11:21.239Z,1.66
2022-12-01T06:13:48.957Z,1.68
2022-12-01T06:16:16.704Z,1.65
2022-12-01T06:18:45.761Z,1.67
2022-12-01T06:21:13.467Z,1.64
2022-12-01T06:23:41.128Z,1.65
2022-12-01T06:26:08.925Z,1.64
2022-12-01T06:28:36.647Z,1.65
2022-12-01T06:31:07.229Z,1.65
2022-12-01T06:33:35.258Z,1.65
2022-12-01T06:36:06.855Z,1.72
2022-12-01T06:38:36.338Z,1.70
2022-12-01T06:41:05.497Z,1.69
2022-12-01T06:43:36.291Z,1.70
2022-12-01T06:46:04.241Z,1.68
2022-12-01T06:48:32.574Z,1.72
2022-12-01T06:51:03.026Z,1.75
2022-12-01T06:53:32.667Z,1.78
2022-12-01T06:56:01.123Z,1.75
2022-12-01T06:58:29.144Z,1.73
2022-12-01T07:00:57.355Z,1.73
2022-12-01T07:03:27.250Z,1.79
2022-12-01T07:05:58.707Z,1.78
2022-12-01T07:08:26.745Z,1.87
2022-12-01T07:10:59.843Z,1.83
2022-12-01T07:13:32.845Z,1.88
2022-12-01T07:16:01.389Z,1.90
2022-12-01T07:18:29.115Z,1.95
2022-12-01T07:21:00.826Z,1.97
2022-12-01T07:23:28.591Z,2.02
2022-12-01T07:26:01.452Z,2.14
2022-12-01T07:28:29.482Z,2.16
2022-12-01T07:31:05.069Z,2.16
2022-12-01T07:33:33.310Z,2.22
2022-12-01T07:36:01.375Z,2.18
2022-12-01T07:38:29.951Z,2.21
2022-12-01T07:41:04.262Z,2.25
2022-12-01T07:43:32.566Z,2.18
2022-12-01T07:46:08.707Z,2.20
2022-12-01T07:48:37.149Z,2.20
2022-12-01T07:51:05.561Z,2.21
2022-12-01T07:53:33.347Z,2.19
2022-12-01T07:56:05.706Z,2.25
2022-12-01T07:58:37.761Z,2.24
2022-12-01T08:01:09.709Z,2.22
2022-12-01T08:03:37.848Z,2.31
2022-12-01T08:06:07.024Z,2.30
2022-12-01T08:08:36.211Z,2.34
2022-12-01T08:11:06.850Z,2.35
2022-12-01T08:13:34.930Z,2.34
2022-12-01T08:16:06.256Z,2.34
2022-12-01T08:18:35.296Z,2.40
2022-12-01T08:21:03.196Z,2.42
2022-12-01T08:23:30.931Z,2.38
2022-12-01T08:26:01.947Z,2.44
2022-12-01T08:28:29.969Z,2.47
2022-12-01T08:30:57.829Z,2.54
2022-12-01T08:33:27.049Z,2.54
2022-12-01T08:35:54.786Z,2.70
2022-12-01T08:38:22.633Z,2.66
2022-12-01T08:40:50.325Z,2.65
2022-12-01T08:43:34.682Z,2.74
2022-12-01T08:46:06.051Z,2.76
2022-12-01T08:48:35.632Z,2.79
2022-12-01T08:51:05.130Z,2.84
2022-12-01T08:53:33.319Z,2.87
2022-12-01T08:56:02.254Z,2.91
2022-12-01T08:58:30.474Z,2.86
2022-12-01T09:01:05.562Z,2.82
2022-12-01T09:03:33.786Z,2.85
2022-12-01T09:06:07.835Z,2.89
2022-12-01T09:08:36.707Z,2.89
2022-12-01T09:11:07.143Z,2.93
2022-12-01T09:13:35.935Z,2.97
2022-12-01T09:16:05.436Z,3.06
2022-12-01T09:18:33.847Z,3.08
2022-12-01T09:21:02.092Z,3.08
2022-12-01T09:23:31.144Z,3.04
2022-12-01T09:26:01.652Z,3.06
2022-12-01T09:28:29.398Z,3.08
2022-12-01T09:30:57.365Z,3.08
2022-12-01T09:33:25.225Z,3.14
2022-12-01T09:35:53.071Z,3.12
2022-12-01T09:38:20.857Z,3.18
2022-12-01T09:40:50.466Z,3.35
2022-12-01T09:43:21.962Z,3.33
2022-12-01T09:45:53.926Z,3.28
2022-12-01T09:48:28.554Z,3.33
2022-12-01T09:50:56.848Z,3.38
2022-12-01T09:53:28.864Z,3.26
2022-12-01T09:56:05.914Z,3.29
2022-12-01T09:58:37.612Z,3.39
2022-12-01T10:01:05.702Z,3.49
2022-12-01T10:03:37.317Z,3.60
2022-12-01T10:06:26.891Z,3.68
2022-12-01T10:09:04.885Z,3.76
2022-12-01T10:11:37.439Z,3.83
2022-12-01T10:14:07.360Z,3.89
2022-12-01T10:16:44.823Z,3.98
2022-12-01T10:19:20.859Z,3.85
2022-12-01T10:22:01.682Z,3.90
2022-12-01T10:24:45.420Z,3.85
2022-12-01T10:27:26.941Z,3.97
2022-12-01T10:30:02.932Z,3.88
2022-12-01T10:32:39.679Z,3.79
2022-12-01T10:35:09.824Z,3.71
2022-12-01T10:37:40.041Z,3.82
2022-12-01T10:40:14.053Z,3.73
2022-12-01T10:42:45.895Z,3.66
2022-12-01T10:45:17.793Z,3.66
2022-12-01T10:48:16.465Z,3.62
2022-12-01T10:50:45.470Z,3.54
2022-12-01T10:53:29.637Z,3.61
2022-12-01T10:56:05.836Z,3.66
2022-12-01T10:58:44.545Z,3.62
2022-12-01T11:01:19.131Z,3.64
2022-12-01T11:03:52.311Z,3.68
2022-12-01T11:06:23.926Z,3.66
2022-12-01T11:08:55.194Z,3.68
2022-12-01T11:11:27.286Z,3.69
2022-12-01T11:13:58.815Z,3.78
2022-12-01T11:16:42.219Z,3.83
2022-12-01T11:19:23.568Z,3.81
2022-12-01T11:21:56.816Z,3.86
2022-12-01T11:24:33.878Z,3.77
2022-12-01T11:27:02.103Z,3.63
2022-12-01T11:29:38.004Z,3.61
2022-12-01T11:32:18.102Z,3.70
2022-12-01T11:34:51.782Z,3.54
2022-12-01T11:37:22.041Z,3.45
2022-12-01T11:39:53.268Z,3.48
2022-12-01T11:42:26.907Z,3.54
2022-12-01T11:45:01.143Z,3.64
2022-12-01T11:47:29.490Z,3.70
2022-12-01T11:49:59.152Z,3.69
2022-12-01T11:52:32.619Z,3.74
2022-12-01T11:55:20.692Z,3.76
2022-12-01T11:57:51.640Z,3.87
2022-12-01T12:00:23.528Z,3.81
2022-12-01T12:03:09.618Z,3.84
2022-12-01T12:06:11.643Z,3.84
2022-12-01T12:08:58.729Z,3.89
2022-12-01T12:11:39.236Z,3.92
2022-12-01T12:14:23.641Z,3.98
2022-12-01T12:17:11.132Z,4.09
2022-12-01T12:20:12.677Z,4.03
2022-12-01T12:22:55.272Z,3.98
2022-12-01T12:25:31.446Z,3.95
2022-12-01T12:28:20.753Z,3.93
2022-12-01T12:30:57.980Z,4.03
2022-12-01T12:33:45.624Z,3.92
2022-12-01T12:36:26.076Z,3.87
2022-12-01T12:39:04.314Z,3.87
2022-12-01T12:41:37.721Z,3.85
2022-12-01T12:44:20.944Z,3.89
2022-12-01T12:47:01.709Z,3.67
2022-12-01T12:49:44.173Z,3.65
2022-12-01T12:52:17.126Z,3.71
2022-12-01T12:54:50.165Z,3.70
2022-12-01T12:57:28.395Z,3.61
2022-12-01T13:00:04.061Z,3.63
2022-12-01T13:02:36.418Z,3.55
2022-12-01T13:05:13.908Z,3.45
2022-12-01T13:07:48.777Z,3.33
2022-12-01T13:10:25.828Z,3.49
2022-12-01T13:12:59.716Z,3.44
2022-12-01T13:15:36.576Z,3.46
2022-12-01T13:18:13.763Z,3.48
2022-12-01T13:20:43.970Z,3.51
2022-12-01T13:23:16.016Z,3.52
2022-12-01T13:25:45.390Z,3.53
2022-12-01T13:28:19.495Z,3.38
2022-12-01T13:31:00.286Z,3.45
2022-12-01T13:33:28.133Z,3.44
2022-12-01T13:36:29.974Z,3.47
2022-12-01T13:38:58.092Z,3.47
2022-12-01T13:41:29.398Z,3.45
2022-12-01T13:44:04.457Z,3.41
2022-12-01T13:46:51.544Z,3.47
2022-12-01T13:49:39.814Z,3.43
2022-12-01T13:52:36.156Z,3.35
2022-12-01T13:55:27.897Z,3.39
2022-12-01T13:58:24.979Z,3.30
2022-12-01T14:00:53.141Z,3.25
2022-12-01T14:03:40.131Z,3.19
2022-12-01T14:06:13.867Z,3.18
2022-12-01T14:08:49.024Z,3.15
2022-12-01T14:11:23.525Z,3.20
2022-12-01T14:13:56.362Z,3.13
2022-12-01T14:16:48.160Z,3.13
2022-12-01T14:19:31.232Z,3.14
2022-12-01T14:22:00.168Z,3.13
2022-12-01T14:24:35.665Z,3.05
2022-12-01T14:27:03.677Z,3.01
2022-12-01T14:29:35.476Z,3.00
2022-12-01T14:32:24.130Z,2.99
2022-12-01T14:35:02.140Z,2.99
2022-12-01T14:37:51.172Z,2.94
2022-12-01T14:40:26.037Z,2.93
2022-12-01T14:43:15.419Z,2.94
2022-12-01T14:45:54.075Z,2.93
2022-12-01T14:48:27.719Z,2.93
2022-12-01T14:51:08.528Z,2.96
2022-12-01T14:53:41.874Z,2.92
2022-12-01T14:56:15.649Z,2.97
2022-12-01T14:58:56.074Z,2.96
2022-12-01T15:01:25.118Z,2.91
2022-12-01T15:04:02.945Z,2.90
2022-12-01T15:06:33.551Z,2.83
2022-12-01T15:09:32.820Z,2.82
2022-12-01T15:12:02.553Z,2.87
2022-12-01T15:14:33.066Z,2.79
2022-12-01T15:17:02.715Z,2.79
2022-12-01T15:19:33.388Z,2.79
2022-12-01T15:22:08.548Z,2.71
2022-12-01T15:24:36.444Z,2.71
2022-12-01T15:27:06.169Z,2.68
2022-12-01T15:29:38.555Z,2.64
2022-12-01T15:32:08.576Z,2.70
2022-12-01T15:34:39.198Z,2.59
2022-12-01T15:37:12.102Z,2.58
2022-12-01T15:39:44.995Z,2.58
2022-12-01T15:42:24.667Z,2.55
2022-12-01T15:45:00.527Z,2.54
2022-12-01T15:47:35.708Z,2.52
2022-12-01T15:50:04.429Z,2.49
2022-12-01T15:52:32.770Z,2.47
2022-12-01T15:55:05.332Z,2.47
2022-12-01T15:57:35.281Z,2.49
2022-12-01T16:00:03.494Z,2.57
2022-12-01T16:02:33.629Z,2.56
2022-12-01T16:05:08.302Z,2.57
2022-12-01T16:08:11.630Z,2.58
2022-12-01T16:10:31.361Z,2.46
2022-12-01T16:13:39.501Z,2.44
2022-12-01T16:16:31.288Z,2.43
2022-12-01T16:19:03.410Z,2.47
2022-12-01T16:21:34.887Z,2.50
2022-12-01T16:24:04.416Z,2.45
2022-12-01T16:26:34.218Z,2.42
2022-12-01T16:29:03.347Z,2.40
2022-12-01T16:31:32.744Z,2.36
2022-12-01T16:34:13.931Z,2.32
2022-12-01T16:36:46.411Z,2.28
2022-12-01T16:39:14.741Z,2.31
2022-12-01T16:41:44.620Z,2.32
2022-12-01T16:44:28.569Z,2.28
2022-12-01T16:46:57.404Z,2.30
2022-12-01T16:49:25.330Z,2.27
2022-12-01T16:51:57.279Z,2.28
2022-12-01T16:54:25.802Z,2.30
2022-12-01T16:56:53.547Z,2.25
2022-12-01T16:59:22.590Z,2.20
2022-12-01T17:01:52.686Z,2.22
2022-12-01T17:04:20.417Z,2.18
2022-12-01T17:06:48.124Z,2.24
2022-12-01T17:09:15.835Z,2.22
2022-12-01T17:11:43.620Z,2.17
2022-12-01T17:14:11.328Z,2.13
2022-12-01T17:16:40.368Z,2.08
2022-12-01T17:19:08.101Z,2.05
2022-12-01T17:21:36.074Z,2.09
2022-12-01T17:24:17.573Z,2.12
2022-12-01T17:26:49.324Z,2.09
2022-12-01T17:29:23.928Z,2.06
2022-12-01T17:31:53.225Z,2.05
2022-12-01T17:34:21.089Z,2.04
2022-12-01T17:36:48.813Z,2.01
2022-12-01T17:39:19.385Z,2.00
2022-12-01T17:41:47.200Z,1.97
2022-12-01T17:44:14.901Z,1.99
2022-12-01T17:46:42.710Z,1.98
2022-12-01T17:49:13.230Z,2.02
2022-12-01T17:51:41.594Z,2.00
2022-12-01T17:54:12.743Z,1.98
2022-12-01T17:56:42.965Z,2.01
2022-12-01T17:59:13.516Z,2.00
2022-12-01T18:01:43.247Z,1.97
2022-12-01T18:04:12.583Z,1.97
2022-12-01T18:06:40.431Z,2.05
2022-12-01T18:09:08.126Z,2.04
2022-12-01T18:11:35.796Z,2.06
2022-12-01T18:14:03.496Z,2.09
2022-12-01T18:16:32.570Z,2.04
2022-12-01T18:19:01.528Z,1.98
2022-12-01T18:21:30.687Z,1.99
2022-12-01T18:24:03.349Z,1.98
2022-12-01T18:26:32.302Z,1.97
2022-12-01T18:29:01.813Z,1.95
2022-12-01T18:31:30.684Z,1.95
2022-12-01T18:34:02.567Z,1.94
2022-12-01T18:36:33.206Z,1.92
2022-12-01T18:39:02.310Z,1.95
2022-12-01T18:41:30.540Z,1.99
2022-12-01T18:43:58.517Z,2.03
2022-12-01T18:46:26.292Z,2.01
2022-12-01T18:49:00.414Z,2.00
2022-12-01T18:51:29.222Z,1.99
2022-12-01T18:54:00.113Z,1.99
2022-12-01T18:56:28.733Z,2.00
2022-12-01T18:58:56.887Z,2.00
2022-12-01T19:01:26.965Z,2.03
2022-12-01T19:03:55.819Z,2.15
2022-12-01T19:06:24.467Z,2.14
2022-12-01T19:08:52.350Z,2.12
2022-12-01T19:11:21.890Z,2.05
2022-12-01T19:13:49.623Z,2.01
2022-12-01T19:16:19.730Z,1.98
2022-12-01T19:18:47.753Z,2.05
2022-12-01T19:21:17.571Z,2.13
2022-12-01T19:23:46.440Z,2.15
2022-12-01T19:26:16.329Z,2.12
2022-12-01T19:28:46.354Z,2.07
2022-12-01T19:31:15.725Z,2.02
2022-12-01T19:33:46.583Z,1.99
2022-12-01T19:36:16.767Z,1.99
2022-12-01T19:38:45.099Z,2.01
2022-12-01T19:41:13.869Z,1.99
2022-12-01T19:43:42.865Z,2.04
2022-12-01T19:46:13.555Z,2.07
2022-12-01T19:48:45.061Z,2.08
2022-12-01T19:51:19.791Z,2.06
2022-12-01T19:53:47.948Z,1.97
2022-12-01T19:56:15.790Z,1.92
2022-12-01T19:58:43.698Z,1.91
2022-12-01T20:01:14.914Z,1.96
2022-12-01T20:03:43.311Z,1.97
2022-12-01T20:06:13.615Z,1.94
2022-12-01T20:08:41.931Z,1.92
2022-12-01T20:11:10.238Z,1.95
2022-12-01T20:13:40.049Z,1.95
2022-12-01T20:16:10.166Z,2.08
2022-12-01T20:18:39.835Z,2.09
2022-12-01T20:21:09.315Z,2.08
2022-12-01T20:23:37.791Z,2.07
2022-12-01T20:26:08.248Z,2.03
2022-12-01T20:28:37.284Z,2.07
2022-12-01T20:31:09.544Z,2.02
2022-12-01T20:33:37.263Z,1.94
2022-12-01T20:36:06.931Z,1.95
2022-12-01T20:38:35.056Z,2.00
2022-12-01T20:41:02.757Z,1.98
2022-12-01T20:43:30.484Z,1.92
2022-12-01T20:45:58.248Z,1.87
2022-12-01T20:48:26.497Z,1.89
2022-12-01T20:50:54.391Z,1.94
2022-12-01T20:53:23.540Z,2.03
2022-12-01T20:55:51.270Z,2.09
2022-12-01T20:58:19.016Z,2.07
2022-12-01T21:00:46.768Z,2.06
2022-12-01T21:03:15.410Z,2.00
2022-12-01T21:05:44.554Z,1.91
2022-12-01T21:08:14.559Z,1.87
2022-12-01T21:10:46.857Z,1.87
2022-12-01T21:13:37.095Z,1.89
2022-12-01T21:16:12.367Z,1.93
2022-12-01T21:18:47.210Z,2.00
2022-12-01T21:21:23.165Z,2.07
2022-12-01T21:24:02.160Z,2.01
2022-12-01T21:26:31.334Z,2.01
2022-12-01T21:29:00.927Z,1.99
2022-12-01T21:31:29.113Z,1.98
2022-12-01T21:33:57.350Z,1.93
2022-12-01T21:36:29.941Z,1.92
2022-12-01T21:39:15.390Z,1.99
2022-12-01T21:41:44.480Z,1.94
2022-12-01T21:44:16.080Z,1.88
2022-12-01T21:46:44.215Z,1.85
2022-12-01T21:49:14.611Z,1.86
2022-12-01T21:51:42.273Z,1.89
2022-12-01T21:54:14.863Z,1.89
2022-12-01T21:56:44.141Z,1.92
2022-12-01T21:59:19.948Z,1.90
2022-12-01T22:01:48.979Z,1.82
2022-12-01T22:04:20.406Z,1.83
2022-12-01T22:06:50.057Z,1.89
2022-12-01T22:09:24.255Z,1.90
2022-12-01T22:11:55.643Z,1.84
2022-12-01T22:14:25.214Z,1.79
2022-12-01T22:16:57.218Z,1.74
2022-12-01T22:19:29.378Z,1.72
2022-12-01T22:22:02.645Z,1.71
2022-12-01T22:24:38.832Z,1.68
2022-12-01T22:27:33.181Z,1.79
2022-12-01T22:30:03.381Z,1.85
2022-12-01T22:32:45.080Z,1.79
2022-12-01T22:35:25.632Z,1.76
2022-12-01T22:37:55.190Z,1.77
2022-12-01T22:40:38.497Z,1.76
2022-12-01T22:43:30.201Z,1.75
2022-12-01T22:46:18.179Z,1.72
2022-12-01T22:48:48.143Z,1.71
2022-12-01T22:51:40.634Z,1.78
2022-12-01T22:54:27.025Z,1.84
2022-12-01T23:03:33.338Z,1.72
2022-12-01T23:06:01.002Z,1.68
2022-12-01T23:08:28.695Z,1.69
2022-12-01T23:10:56.391Z,1.68
2022-12-01T23:13:25.656Z,1.69
2022-12-01T23:15:54.533Z,1.71
2022-12-01T23:18:25.341Z,1.79
2022-12-01T23:20:56.237Z,1.82
2022-12-01T23:23:28.292Z,1.76
2022-12-01T23:25:56.462Z,1.77
2022-12-01T23:28:25.140Z,1.81
2022-12-01T23:30:55.782Z,1.81
2022-12-01T23:33:25.357Z,1.84
2022-12-01T23:35:57.153Z,1.84
2022-12-01T23:38:32.361Z,1.83
2022-12-01T23:41:02.108Z,1.80
2022-12-01T23:43:33.019Z,1.74
2022-12-01T23:46:05.083Z,1.72
2022-12-01T23:48:35.679Z,1.71
2022-12-01T23:51:05.941Z,1.67
2022-12-01T23:53:35.532Z,1.67
2022-12-01T23:56:10.177Z,1.69
2022-12-01T23:58:37.891Z,1.69
